sensor_id;sensor_type;location;lat;lon;timestamp;P1;durP1;ratioP1;P2;durP2;ratioP2
14774;SDS011;7479;47.042;15.160;2022-10-16T07:06:47;20.87;;;16.80;;
14774;SDS011;7479;47.042;15.160;2022-10-16T07:38:27;20.00;;;15.60;;
14774;SDS011;7479;47.042;15.160;2022-10-16T08:04:20;17.87;;;13.37;;
14774;SDS011;7479;47.042;15.160;2022-10-16T08:26:18;12.13;;;9.77;;
14774;SDS011;7479;47.042;15.160;2022-10-16T08:31:13;16.53;;;9.77;;
14774;SDS011;7479;47.042;15.160;2022-10-16T08:54:37;10.07;;;7.60;;
14774;SDS011;7479;47.042;15.160;2022-10-16T08:59:34;12.10;;;9.37;;
14774;SDS011;7479;47.042;15.160;2022-10-16T09:04:42;9.43;;;8.50;;
14774;SDS011;7479;47.042;15.160;2022-10-16T09:25:54;11.00;;;9.57;;
14774;SDS011;7479;47.042;15.160;2022-10-16T09:30:50;10.40;;;9.37;;
14774;SDS011;7479;47.042;15.160;2022-10-16T09:35:45;11.77;;;9.20;;
14774;SDS011;7479;47.042;15.160;2022-10-16T09:40:41;12.25;;;8.48;;
14774;SDS011;7479;47.042;15.160;2022-10-16T09:45:37;11.27;;;8.48;;
14774;SDS011;7479;47.042;15.160;2022-10-16T09:50:30;9.40;;;8.43;;
14774;SDS011;7479;47.042;15.160;2022-10-16T09:55:24;13.25;;;9.10;;
14774;SDS011;7479;47.042;15.160;2022-10-16T10:00:19;10.18;;;9.18;;
14774;SDS011;7479;47.042;15.160;2022-10-16T10:05:26;9.77;;;8.48;;
14774;SDS011;7479;47.042;15.160;2022-10-16T10:10:22;11.50;;;9.65;;
14774;SDS011;7479;47.042;15.160;2022-10-16T10:15:17;11.80;;;9.20;;
14774;SDS011;7479;47.042;15.160;2022-10-16T10:20:18;10.43;;;9.43;;
14774;SDS011;7479;47.042;15.160;2022-10-16T10:25:22;11.85;;;10.05;;
14774;SDS011;7479;47.042;15.160;2022-10-16T10:30:32;11.00;;;9.52;;
14774;SDS011;7479;47.042;15.160;2022-10-16T10:35:35;10.70;;;9.60;;
14774;SDS011;7479;47.042;15.160;2022-10-16T10:46:03;9.98;;;8.98;;
14774;SDS011;7479;47.042;15.160;2022-10-16T10:51:00;9.85;;;8.85;;
14774;SDS011;7479;47.042;15.160;2022-10-16T10:55:59;11.10;;;9.98;;
14774;SDS011;7479;47.042;15.160;2022-10-16T11:01:01;10.27;;;9.13;;
14774;SDS011;7479;47.042;15.160;2022-10-16T11:06:02;10.07;;;9.00;;
14774;SDS011;7479;47.042;15.160;2022-10-16T11:11:01;10.48;;;9.40;;
14774;SDS011;7479;47.042;15.160;2022-10-16T11:15:58;10.75;;;9.70;;
14774;SDS011;7479;47.042;15.160;2022-10-16T11:21:11;10.57;;;9.48;;
14774;SDS011;7479;47.042;15.160;2022-10-16T11:26:10;9.75;;;8.75;;
14774;SDS011;7479;47.042;15.160;2022-10-16T11:31:10;9.75;;;8.68;;
14774;SDS011;7479;47.042;15.160;2022-10-16T11:36:14;9.05;;;8.15;;
14774;SDS011;7479;47.042;15.160;2022-10-16T11:41:15;10.18;;;9.07;;
14774;SDS011;7479;47.042;15.160;2022-10-16T11:46:17;9.75;;;8.82;;
14774;SDS011;7479;47.042;15.160;2022-10-16T11:51:17;10.27;;;9.27;;
14774;SDS011;7479;47.042;15.160;2022-10-16T11:56:20;12.55;;;9.82;;
14774;SDS011;7479;47.042;15.160;2022-10-16T12:01:16;11.95;;;10.75;;
14774;SDS011;7479;47.042;15.160;2022-10-16T12:06:27;11.70;;;10.57;;
14774;SDS011;7479;47.042;15.160;2022-10-16T12:11:32;11.68;;;10.02;;
14774;SDS011;7479;47.042;15.160;2022-10-16T12:16:28;15.50;;;11.57;;
14774;SDS011;7479;47.042;15.160;2022-10-16T12:21:23;11.95;;;10.73;;
14774;SDS011;7479;47.042;15.160;2022-10-16T12:26:25;11.38;;;10.30;;
14774;SDS011;7479;47.042;15.160;2022-10-16T12:31:25;11.73;;;10.55;;
14774;SDS011;7479;47.042;15.160;2022-10-16T12:36:51;10.70;;;9.48;;
14774;SDS011;7479;47.042;15.160;2022-10-16T12:41:47;13.38;;;10.52;;
14774;SDS011;7479;47.042;15.160;2022-10-16T12:46:43;14.00;;;12.65;;
14774;SDS011;7479;47.042;15.160;2022-10-16T12:51:37;11.82;;;10.63;;
14774;SDS011;7479;47.042;15.160;2022-10-16T12:56:36;12.32;;;10.18;;
14774;SDS011;7479;47.042;15.160;2022-10-16T13:01:41;11.23;;;10.13;;
14774;SDS011;7479;47.042;15.160;2022-10-16T13:06:46;11.80;;;10.65;;
14774;SDS011;7479;47.042;15.160;2022-10-16T13:17:10;15.00;;;11.02;;
14774;SDS011;7479;47.042;15.160;2022-10-16T13:22:13;11.65;;;10.55;;
14774;SDS011;7479;47.042;15.160;2022-10-16T13:27:17;13.35;;;11.38;;
14774;SDS011;7479;47.042;15.160;2022-10-16T13:32:19;11.50;;;10.30;;
14774;SDS011;7479;47.042;15.160;2022-10-16T13:37:17;12.00;;;10.77;;
14774;SDS011;7479;47.042;15.160;2022-10-16T13:42:14;11.98;;;10.88;;
14774;SDS011;7479;47.042;15.160;2022-10-16T13:47:19;11.40;;;10.10;;
14774;SDS011;7479;47.042;15.160;2022-10-16T13:52:17;12.77;;;11.00;;
14774;SDS011;7479;47.042;15.160;2022-10-16T13:57:14;12.60;;;11.10;;
14774;SDS011;7479;47.042;15.160;2022-10-16T14:02:20;12.38;;;11.15;;
14774;SDS011;7479;47.042;15.160;2022-10-16T14:07:22;12.48;;;11.27;;
14774;SDS011;7479;47.042;15.160;2022-10-16T14:12:20;14.20;;;12.90;;
14774;SDS011;7479;47.042;15.160;2022-10-16T14:17:19;13.18;;;11.88;;
14774;SDS011;7479;47.042;15.160;2022-10-16T14:22:21;13.90;;;12.55;;
14774;SDS011;7479;47.042;15.160;2022-10-16T14:27:26;21.23;;;19.10;;
14774;SDS011;7479;47.042;15.160;2022-10-16T14:32:26;18.25;;;15.38;;
14774;SDS011;7479;47.042;15.160;2022-10-16T14:37:22;16.05;;;14.27;;
14774;SDS011;7479;47.042;15.160;2022-10-16T14:42:19;15.77;;;14.18;;
14774;SDS011;7479;47.042;15.160;2022-10-16T14:47:17;16.70;;;15.10;;
14774;SDS011;7479;47.042;15.160;2022-10-16T14:52:16;17.23;;;15.52;;
14774;SDS011;7479;47.042;15.160;2022-10-16T14:57:15;18.75;;;16.77;;
14774;SDS011;7479;47.042;15.160;2022-10-16T15:02:15;16.77;;;15.18;;
14774;SDS011;7479;47.042;15.160;2022-10-16T15:07:15;20.08;;;17.48;;
14774;SDS011;7479;47.042;15.160;2022-10-16T15:12:09;19.10;;;16.10;;
14774;SDS011;7479;47.042;15.160;2022-10-16T15:17:03;20.45;;;15.40;;
14774;SDS011;7479;47.042;15.160;2022-10-16T15:21:59;16.60;;;14.90;;
14774;SDS011;7479;47.042;15.160;2022-10-16T15:26:53;18.00;;;15.43;;
14774;SDS011;7479;47.042;15.160;2022-10-16T15:31:47;18.08;;;16.25;;
14774;SDS011;7479;47.042;15.160;2022-10-16T15:36:41;17.98;;;15.75;;
14774;SDS011;7479;47.042;15.160;2022-10-16T15:41:37;17.65;;;15.75;;
14774;SDS011;7479;47.042;15.160;2022-10-16T15:46:32;19.88;;;16.92;;
14774;SDS011;7479;47.042;15.160;2022-10-16T15:51:27;18.23;;;15.88;;
14774;SDS011;7479;47.042;15.160;2022-10-16T15:56:21;19.75;;;16.60;;
14774;SDS011;7479;47.042;15.160;2022-10-16T16:01:18;23.38;;;19.00;;
14774;SDS011;7479;47.042;15.160;2022-10-16T16:06:12;19.42;;;17.30;;
14774;SDS011;7479;47.042;15.160;2022-10-16T16:11:08;18.02;;;16.13;;
14774;SDS011;7479;47.042;15.160;2022-10-16T16:16:05;21.50;;;17.85;;
14774;SDS011;7479;47.042;15.160;2022-10-16T16:21:01;21.33;;;17.02;;
14774;SDS011;7479;47.042;15.160;2022-10-16T16:26:02;22.23;;;18.85;;
14774;SDS011;7479;47.042;15.160;2022-10-16T16:31:01;21.00;;;17.60;;
14774;SDS011;7479;47.042;15.160;2022-10-16T16:35:56;25.80;;;18.88;;
14774;SDS011;7479;47.042;15.160;2022-10-16T16:40:53;24.13;;;21.35;;
14774;SDS011;7479;47.042;15.160;2022-10-16T16:45:47;21.45;;;19.25;;
14774;SDS011;7479;47.042;15.160;2022-10-16T16:50:41;22.88;;;19.42;;
14774;SDS011;7479;47.042;15.160;2022-10-16T16:55:35;26.67;;;24.05;;
14774;SDS011;7479;47.042;15.160;2022-10-16T17:00:32;25.17;;;20.38;;
14774;SDS011;7479;47.042;15.160;2022-10-16T17:05:25;28.63;;;21.77;;
14774;SDS011;7479;47.042;15.160;2022-10-16T17:10:19;24.30;;;19.95;;
14774;SDS011;7479;47.042;15.160;2022-10-16T17:15:13;22.95;;;20.02;;
14774;SDS011;7479;47.042;15.160;2022-10-16T17:20:09;24.95;;;21.02;;
14774;SDS011;7479;47.042;15.160;2022-10-16T17:25:03;30.38;;;25.17;;
14774;SDS011;7479;47.042;15.160;2022-10-16T17:29:58;27.65;;;23.48;;
14774;SDS011;7479;47.042;15.160;2022-10-16T17:34:52;27.85;;;21.67;;
